createdAt,value
2019-01-16T00:00:40.145Z,3.50
2019-01-16T00:03:26.887Z,3.97
2019-01-16T00:09:05.523Z,3.37
2019-01-16T00:11:53.269Z,3.27
2019-01-16T00:14:53.392Z,2.83
2019-01-16T00:17:50.443Z,3.03
2019-01-16T00:23:42.815Z,3.20
2019-01-16T00:26:29.204Z,3.17
2019-01-16T00:29:32.116Z,3.17
2019-01-16T00:32:33.835Z,2.90
2019-01-16T00:35:33.881Z,2.77
2019-01-16T00:38:34.012Z,3.20
2019-01-16T00:41:24.682Z,2.40
2019-01-16T00:44:07.679Z,3.03
2019-01-16T00:46:49.891Z,2.77
2019-01-16T00:49:48.789Z,2.70
2019-01-16T00:52:31.511Z,2.80
2019-01-16T00:55:25.093Z,2.47
2019-01-16T00:58:31.073Z,2.77
2019-01-16T01:01:11.244Z,3.30
2019-01-16T01:03:57.532Z,2.67
2019-01-16T01:06:54.154Z,3.20
2019-01-16T01:10:00.227Z,3.07
2019-01-16T01:12:46.564Z,2.90
2019-01-16T01:21:34.180Z,2.90
2019-01-16T01:24:19.951Z,3.53
2019-01-16T01:27:26.136Z,2.83
2019-01-16T01:33:04.656Z,2.67
2019-01-16T01:35:48.119Z,2.83
2019-01-16T01:38:34.696Z,3.47
2019-01-16T01:44:21.242Z,3.73
2019-01-16T01:47:01.006Z,3.60
2019-01-16T01:49:40.742Z,3.50
2019-01-16T01:52:18.820Z,3.37
2019-01-16T01:55:18.538Z,3.60
2019-01-16T01:57:55.879Z,3.60
2019-01-16T02:00:45.605Z,3.63
2019-01-16T02:03:39.098Z,3.40
2019-01-16T02:12:39.753Z,3.60
2019-01-16T02:15:27.590Z,3.43
2019-01-16T02:18:19.668Z,3.40
2019-01-16T02:21:13.327Z,3.27
2019-01-16T02:24:09.924Z,3.43
2019-01-16T02:26:56.474Z,3.73
2019-01-16T02:29:36.300Z,3.27
2019-01-16T02:32:24.012Z,2.90
2019-01-16T02:35:26.808Z,3.20
2019-01-16T02:38:12.709Z,3.47
2019-01-16T02:49:46.614Z,3.87
2019-01-16T02:52:34.403Z,3.47
2019-01-16T02:55:34.598Z,3.50
2019-01-16T02:58:31.293Z,3.80
2019-01-16T03:01:40.467Z,3.50
2019-01-16T03:04:40.219Z,3.40
2019-01-16T03:07:27.846Z,3.50
2019-01-16T03:10:06.586Z,3.83
2019-01-16T03:12:53.075Z,3.13
2019-01-16T03:18:29.748Z,4.70
2019-01-16T03:21:22.068Z,4.17
2019-01-16T03:24:12.658Z,3.93
2019-01-16T03:27:00.384Z,3.80
2019-01-16T03:29:50.086Z,4.43
2019-01-16T03:32:37.815Z,4.30
2019-01-16T03:35:43.684Z,4.53
2019-01-16T03:38:30.761Z,3.67
2019-01-16T03:41:07.694Z,3.97
2019-01-16T03:43:48.502Z,4.07
2019-01-16T03:46:26.220Z,4.10
2019-01-16T03:52:00.196Z,4.77
2019-01-16T03:54:59.312Z,4.27
2019-01-16T03:57:41.414Z,4.33
2019-01-16T04:00:36.062Z,4.47
2019-01-16T04:03:25.663Z,4.23
2019-01-16T04:06:08.100Z,4.93
2019-01-16T04:09:02.346Z,6.87
2019-01-16T04:11:48.978Z,5.60
2019-01-16T04:17:27.856Z,6.30
2019-01-16T04:20:18.496Z,5.80
2019-01-16T04:28:55.966Z,6.53
2019-01-16T04:31:42.718Z,7.70
2019-01-16T04:34:30.455Z,7.47
2019-01-16T04:37:16.742Z,7.43
2019-01-16T04:39:53.038Z,7.53
2019-01-16T04:42:29.942Z,7.90
2019-01-16T04:45:15.924Z,7.57
2019-01-16T04:48:12.391Z,7.80
2019-01-16T04:51:00.141Z,8.13
2019-01-16T04:54:00.180Z,7.40
2019-01-16T04:56:46.907Z,8.17
2019-01-16T04:59:44.143Z,7.00
2019-01-16T05:02:22.886Z,8.60
2019-01-16T05:05:01.645Z,7.53
2019-01-16T05:11:02.401Z,6.50
2019-01-16T05:13:41.629Z,7.23
2019-01-16T05:16:33.026Z,8.17
2019-01-16T05:19:29.185Z,7.03
2019-01-16T05:25:33.189Z,8.17
2019-01-16T05:28:20.737Z,7.77
2019-01-16T05:31:06.106Z,8.60
2019-01-16T05:33:53.868Z,7.80
2019-01-16T05:36:34.418Z,8.77
2019-01-16T05:39:21.757Z,7.80
2019-01-16T05:42:15.996Z,8.03
2019-01-16T05:44:56.182Z,8.70
2019-01-16T05:47:41.668Z,7.57
2019-01-16T05:50:41.434Z,7.80
2019-01-16T05:53:26.956Z,7.53
2019-01-16T05:56:22.718Z,7.17
2019-01-16T05:59:11.487Z,7.73
2019-01-16T06:02:08.208Z,7.00
2019-01-16T06:04:58.904Z,8.20
2019-01-16T06:07:49.429Z,7.83
2019-01-16T06:10:30.307Z,8.30
2019-01-16T06:13:10.403Z,7.87
2019-01-16T06:19:11.020Z,8.13
2019-01-16T06:25:03.249Z,7.53
2019-01-16T06:31:08.076Z,8.20
2019-01-16T06:40:45.743Z,9.17
2019-01-16T06:43:34.901Z,10.10
2019-01-16T06:52:23.920Z,9.17
2019-01-16T06:55:17.543Z,9.27
2019-01-16T06:58:06.761Z,9.77
2019-01-16T07:00:54.539Z,8.47
2019-01-16T07:04:03.547Z,9.80
2019-01-16T07:06:49.948Z,9.10
2019-01-16T07:09:56.100Z,9.30
2019-01-16T07:12:46.646Z,8.50
2019-01-16T07:15:45.220Z,9.37
2019-01-16T07:18:31.554Z,9.27
2019-01-16T07:21:25.466Z,9.10
2019-01-16T07:24:13.394Z,9.67
2019-01-16T07:30:37.658Z,8.83
2019-01-16T07:33:16.801Z,9.57
2019-01-16T07:36:17.045Z,9.80
2019-01-16T07:39:08.492Z,10.70
2019-01-16T07:42:05.244Z,9.30
2019-01-16T07:45:07.089Z,9.00
2019-01-16T07:48:19.384Z,9.27
2019-01-16T07:51:06.740Z,9.60
2019-01-16T07:54:03.365Z,10.47
2019-01-16T07:56:54.518Z,9.93
2019-01-16T07:59:54.589Z,9.90
2019-01-16T08:02:41.295Z,10.07
2019-01-16T08:05:35.114Z,9.33
2019-01-16T08:08:35.900Z,10.57
2019-01-16T08:11:39.019Z,9.97
2019-01-16T08:14:24.943Z,9.50
2019-01-16T08:17:02.839Z,9.37
2019-01-16T08:20:00.789Z,9.60
2019-01-16T08:22:47.509Z,9.90
2019-01-16T08:25:46.712Z,10.57
2019-01-16T08:28:26.274Z,9.70
2019-01-16T08:31:02.642Z,10.37
2019-01-16T08:33:58.563Z,11.17
2019-01-16T08:36:44.744Z,10.80
2019-01-16T08:39:29.102Z,11.17
2019-01-16T08:42:19.911Z,10.80
2019-01-16T08:45:14.561Z,11.70
2019-01-16T08:48:08.301Z,10.73
2019-01-16T08:51:02.531Z,11.17
2019-01-16T08:53:49.162Z,11.13
2019-01-16T08:56:52.307Z,11.23
2019-01-16T08:59:38.560Z,11.73
2019-01-16T09:02:26.360Z,11.07
2019-01-16T09:08:45.967Z,11.17
2019-01-16T09:15:13.928Z,10.97
2019-01-16T09:18:01.517Z,10.60
2019-01-16T09:20:50.286Z,10.13
2019-01-16T09:23:34.938Z,10.27
2019-01-16T09:26:13.951Z,10.97
2019-01-16T09:29:04.862Z,9.73
2019-01-16T09:31:46.302Z,9.60
2019-01-16T09:34:43.152Z,9.50
2019-01-16T09:37:46.472Z,10.03
2019-01-16T09:40:49.088Z,9.00
2019-01-16T09:46:28.034Z,9.50
2019-01-16T09:49:14.494Z,10.33
2019-01-16T09:52:11.228Z,10.33
2019-01-16T09:55:05.317Z,9.83
2019-01-16T09:57:49.116Z,8.93
2019-01-16T10:00:49.852Z,9.47
2019-01-16T10:03:36.267Z,9.17
2019-01-16T10:06:22.666Z,8.67
2019-01-16T10:09:09.231Z,9.57
2019-01-16T10:12:09.083Z,8.50
2019-01-16T10:14:56.898Z,9.20
2019-01-16T10:18:00.920Z,7.80
2019-01-16T10:20:55.582Z,8.97
2019-01-16T10:23:39.496Z,8.70
2019-01-16T10:26:39.293Z,8.03
2019-01-16T10:29:27.088Z,7.73
2019-01-16T10:32:26.739Z,7.97
2019-01-16T10:41:26.566Z,7.60
2019-01-16T10:44:14.534Z,9.00
2019-01-16T10:46:57.524Z,10.07
2019-01-16T10:49:43.832Z,8.90
2019-01-16T10:52:47.160Z,8.50
2019-01-16T10:55:37.488Z,6.73
2019-01-16T10:58:35.770Z,7.03
2019-01-16T11:01:30.353Z,8.00
2019-01-16T11:04:16.776Z,8.47
2019-01-16T11:07:03.143Z,8.70
2019-01-16T11:09:49.774Z,7.23
2019-01-16T11:12:32.305Z,7.13
2019-01-16T11:15:18.958Z,8.40
2019-01-16T11:18:12.796Z,7.73
2019-01-16T11:21:00.160Z,6.90
2019-01-16T11:23:47.909Z,7.90
2019-01-16T11:26:38.449Z,6.27
2019-01-16T11:29:39.479Z,6.40
2019-01-16T11:32:26.948Z,6.53
2019-01-16T11:38:10.004Z,6.93
2019-01-16T11:40:51.728Z,5.57
2019-01-16T11:43:38.467Z,6.70
2019-01-16T11:46:26.931Z,6.77
2019-01-16T11:49:13.586Z,6.00
2019-01-16T11:51:55.718Z,5.03
2019-01-16T11:54:52.652Z,5.70
2019-01-16T11:57:49.724Z,6.10
2019-01-16T12:00:29.488Z,6.10
2019-01-16T12:03:13.941Z,6.17
2019-01-16T12:05:56.263Z,6.00
2019-01-16T12:08:50.186Z,6.53
2019-01-16T12:11:46.913Z,6.53
2019-01-16T12:14:37.892Z,5.77
2019-01-16T12:17:29.797Z,6.37
2019-01-16T12:20:08.030Z,5.73
2019-01-16T12:22:57.717Z,6.70
2019-01-16T12:25:44.320Z,5.63
2019-01-16T12:28:30.910Z,5.40
2019-01-16T12:31:30.802Z,5.37
2019-01-16T12:34:23.117Z,5.77
2019-01-16T12:37:20.399Z,5.90
2019-01-16T12:40:07.280Z,5.27
2019-01-16T12:42:54.233Z,4.77
2019-01-16T12:45:44.758Z,5.13
2019-01-16T12:48:29.287Z,4.73
2019-01-16T12:51:15.579Z,5.37
2019-01-16T12:54:12.294Z,5.20
2019-01-16T12:57:09.147Z,5.10
2019-01-16T12:59:49.146Z,5.23
2019-01-16T13:02:40.027Z,5.63
2019-01-16T13:05:37.933Z,4.70
2019-01-16T13:08:31.928Z,4.67
2019-01-16T13:11:12.330Z,4.90
2019-01-16T13:13:54.910Z,4.70
2019-01-16T13:16:42.644Z,4.47
2019-01-16T13:19:28.985Z,4.90
2019-01-16T13:22:22.839Z,5.00
2019-01-16T13:25:18.847Z,4.67
2019-01-16T13:28:15.418Z,4.27
2019-01-16T13:31:01.582Z,3.70
2019-01-16T13:33:49.314Z,4.43
2019-01-16T13:36:32.094Z,4.87
2019-01-16T13:39:18.673Z,3.57
2019-01-16T13:42:02.154Z,4.23
2019-01-16T13:44:58.258Z,3.80
2019-01-16T13:47:46.094Z,4.07
2019-01-16T13:50:52.102Z,4.13
2019-01-16T13:53:38.464Z,4.10
2019-01-16T13:56:41.240Z,3.90
2019-01-16T13:59:31.024Z,3.60
2019-01-16T14:02:16.555Z,3.90
2019-01-16T14:05:02.893Z,3.90
2019-01-16T14:07:49.598Z,4.03
2019-01-16T14:10:36.145Z,3.80
2019-01-16T14:13:36.030Z,4.13
2019-01-16T14:16:36.530Z,4.00
2019-01-16T14:19:18.783Z,3.63
2019-01-16T14:22:00.859Z,4.43
2019-01-16T14:24:42.405Z,4.00
2019-01-16T14:27:25.009Z,4.00
2019-01-16T14:30:18.817Z,4.07
2019-01-16T14:33:15.890Z,4.03
2019-01-16T14:36:06.409Z,4.17
2019-01-16T14:38:48.999Z,4.50
2019-01-16T14:41:32.448Z,4.00
2019-01-16T14:44:22.482Z,4.20
2019-01-16T14:47:08.842Z,4.03
2019-01-16T14:49:59.858Z,4.63
2019-01-16T14:52:51.125Z,4.10
2019-01-16T14:55:45.143Z,4.37
2019-01-16T14:58:27.894Z,4.27
2019-01-16T15:01:25.406Z,4.17
2019-01-16T15:04:01.739Z,4.00
2019-01-16T15:06:50.387Z,5.03
2019-01-16T15:09:33.434Z,4.67
2019-01-16T15:12:21.396Z,4.67
2019-01-16T15:15:10.634Z,4.90
2019-01-16T15:18:01.880Z,4.60
2019-01-16T15:20:52.676Z,4.20
2019-01-16T15:23:40.619Z,4.73
2019-01-16T15:26:28.326Z,4.33
2019-01-16T15:29:22.361Z,4.30
2019-01-16T15:32:20.605Z,4.20
2019-01-16T15:34:58.526Z,4.40
2019-01-16T15:37:38.370Z,4.60
2019-01-16T15:40:30.798Z,4.63
2019-01-16T15:43:18.451Z,4.90
2019-01-16T15:46:13.685Z,4.40
2019-01-16T15:49:13.891Z,4.80
2019-01-16T15:51:53.386Z,5.00
2019-01-16T15:54:41.225Z,5.10
2019-01-16T15:57:32.076Z,5.20
2019-01-16T16:00:30.110Z,4.90
2019-01-16T16:03:20.444Z,5.13
2019-01-16T16:06:07.025Z,4.57
2019-01-16T16:08:49.645Z,5.37
2019-01-16T16:11:32.312Z,5.23
2019-01-16T16:14:22.882Z,5.60
2019-01-16T16:20:30.678Z,5.47
2019-01-16T16:23:27.414Z,5.13
2019-01-16T16:26:10.799Z,5.23
2019-01-16T16:28:47.430Z,5.63
2019-01-16T16:31:35.122Z,6.03
2019-01-16T16:34:21.667Z,5.20
2019-01-16T16:37:19.632Z,6.30
2019-01-16T16:46:30.459Z,6.60
2019-01-16T16:49:19.287Z,6.50
2019-01-16T16:52:00.109Z,6.03
2019-01-16T16:57:54.648Z,6.10
2019-01-16T17:00:42.551Z,5.90
2019-01-16T17:03:34.589Z,6.90
2019-01-16T17:06:28.398Z,6.70
2019-01-16T17:09:28.130Z,6.10
2019-01-16T17:12:14.675Z,6.50
2019-01-16T17:14:54.646Z,6.47
2019-01-16T17:18:03.818Z,6.60
2019-01-16T17:20:50.455Z,6.13
2019-01-16T17:23:53.284Z,6.43
2019-01-16T17:26:40.381Z,6.07
2019-01-16T17:29:28.151Z,7.03
2019-01-16T17:32:10.895Z,5.63
2019-01-16T17:41:46.126Z,6.60
2019-01-16T17:44:44.414Z,7.87
2019-01-16T17:47:33.606Z,7.00
2019-01-16T17:50:20.235Z,6.90
2019-01-16T17:53:00.770Z,7.10
2019-01-16T17:56:03.830Z,6.77
2019-01-16T17:59:03.550Z,7.17
2019-01-16T18:11:39.660Z,7.80
2019-01-16T18:17:55.928Z,7.57
2019-01-16T18:20:43.835Z,7.78
2019-01-16T18:33:17.215Z,9.78
2019-01-16T18:35:59.327Z,10.33
2019-01-16T18:38:59.391Z,9.53
2019-01-16T18:41:50.429Z,9.40
2019-01-16T18:44:56.785Z,9.08
2019-01-16T18:47:44.593Z,8.73
2019-01-16T18:50:59.757Z,10.38
2019-01-16T18:53:44.634Z,10.40
2019-01-16T18:56:47.737Z,9.75
2019-01-16T18:59:29.072Z,10.28
2019-01-16T19:02:32.089Z,9.55
2019-01-16T19:05:18.657Z,9.68
2019-01-16T19:08:07.817Z,9.95
2019-01-16T19:10:55.631Z,9.73
2019-01-16T19:14:07.374Z,9.50
2019-01-16T19:17:13.468Z,9.50
2019-01-16T19:20:11.542Z,8.98
2019-01-16T19:22:45.270Z,9.58
2019-01-16T19:25:55.367Z,9.48
2019-01-16T19:28:53.491Z,8.88
2019-01-16T19:31:45.620Z,8.93
2019-01-16T19:34:39.486Z,9.08
2019-01-16T19:37:26.302Z,8.88
2019-01-16T19:40:06.336Z,9.50
2019-01-16T19:46:40.520Z,9.08
2019-01-16T19:49:20.832Z,8.33
2019-01-16T19:55:40.417Z,9.48
2019-01-16T20:11:50.798Z,8.85
2019-01-16T20:14:37.720Z,9.85
2019-01-16T20:17:16.536Z,8.55
2019-01-16T20:20:16.282Z,8.75
2019-01-16T20:23:10.901Z,8.90
2019-01-16T20:25:58.946Z,9.10
2019-01-16T20:28:49.931Z,8.65
2019-01-16T20:31:40.743Z,8.70
2019-01-16T20:34:28.505Z,8.78
2019-01-16T20:37:28.540Z,9.63
2019-01-16T20:40:22.510Z,8.73
2019-01-16T20:43:10.342Z,9.08
2019-01-16T20:45:50.993Z,9.50
2019-01-16T20:52:00.754Z,9.00
2019-01-16T20:54:48.555Z,8.80
2019-01-16T20:57:35.076Z,9.23
2019-01-16T21:00:20.688Z,8.60
2019-01-16T21:03:16.083Z,8.05
2019-01-16T21:06:14.932Z,9.00
2019-01-16T21:12:15.518Z,8.20
2019-01-16T21:15:00.727Z,7.95
2019-01-16T21:17:51.364Z,7.83
2019-01-16T21:20:40.734Z,7.42
2019-01-16T21:23:27.176Z,7.28
2019-01-16T21:26:17.879Z,7.42
2019-01-16T21:29:14.716Z,7.12
2019-01-16T21:32:01.239Z,7.78
2019-01-16T21:34:48.536Z,7.37
2019-01-16T21:37:48.186Z,7.37
2019-01-16T21:40:35.870Z,7.35
2019-01-16T21:43:20.734Z,6.67
2019-01-16T21:46:12.275Z,6.85
2019-01-16T21:49:00.734Z,7.15
2019-01-16T21:52:06.561Z,6.42
2019-01-16T21:54:45.721Z,6.47
2019-01-16T21:57:43.911Z,6.10
2019-01-16T22:03:33.296Z,6.47
2019-01-16T22:06:13.076Z,6.03
2019-01-16T22:09:06.174Z,6.87
2019-01-16T22:11:54.037Z,6.12
2019-01-16T22:14:41.894Z,6.22
2019-01-16T22:20:40.150Z,6.28
2019-01-16T22:23:19.200Z,6.75
2019-01-16T22:26:02.364Z,6.53
2019-01-16T22:29:02.180Z,6.47
2019-01-16T22:44:45.721Z,6.22
2019-01-16T22:47:33.694Z,7.62
2019-01-16T22:50:22.551Z,7.17
2019-01-16T22:59:37.431Z,6.47
2019-01-16T23:02:16.807Z,7.12
2019-01-16T23:24:14.756Z,6.62
2019-01-16T23:27:12.984Z,6.97
2019-01-16T23:30:02.257Z,6.78
2019-01-16T23:32:39.177Z,6.90
2019-01-16T23:35:36.538Z,7.42
2019-01-16T23:38:31.184Z,7.20
2019-01-16T23:41:28.577Z,7.47
2019-01-16T23:44:22.651Z,7.45
